createdAt,value
2023-03-07T00:01:02.234Z,19.70
2023-03-07T00:03:29.330Z,18.57
2023-03-07T00:06:08.661Z,18.97
2023-03-07T00:08:36.257Z,19.20
2023-03-07T00:11:08.981Z,19.33
2023-03-07T00:13:37.718Z,18.63
2023-03-07T00:16:07.470Z,19.10
2023-03-07T00:18:35.220Z,20.07
2023-03-07T00:21:08.234Z,19.77
2023-03-07T00:23:37.260Z,20.53
2023-03-07T00:26:19.635Z,18.93
2023-03-07T00:28:48.600Z,17.97
2023-03-07T00:31:15.998Z,18.70
2023-03-07T00:33:43.442Z,18.50
2023-03-07T00:36:16.927Z,17.70
2023-03-07T00:38:44.365Z,17.80
2023-03-07T00:41:16.691Z,17.97
2023-03-07T00:43:44.132Z,18.17
2023-03-07T00:46:11.978Z,18.07
2023-03-07T00:48:39.838Z,18.10
2023-03-07T00:51:09.156Z,18.83
2023-03-07T00:53:37.058Z,18.80
2023-03-07T00:56:09.977Z,19.37
2023-03-07T00:58:37.092Z,19.20
2023-03-07T01:01:06.258Z,19.27
2023-03-07T01:03:34.436Z,20.53
2023-03-07T01:06:10.005Z,20.23
2023-03-07T01:08:36.912Z,19.83
2023-03-07T01:11:06.071Z,20.33
2023-03-07T01:13:34.650Z,20.07
2023-03-07T01:16:22.803Z,21.03
2023-03-07T01:18:52.896Z,19.57
2023-03-07T01:21:28.248Z,20.37
2023-03-07T01:23:55.256Z,20.37
2023-03-07T01:26:27.701Z,20.53
2023-03-07T01:28:57.071Z,21.77
2023-03-07T01:31:25.479Z,20.63
2023-03-07T01:33:54.072Z,20.73
2023-03-07T01:36:29.986Z,21.20
2023-03-07T01:39:05.256Z,20.67
2023-03-07T01:41:33.387Z,21.67
2023-03-07T01:44:08.038Z,21.57
2023-03-07T01:46:44.282Z,20.67
2023-03-07T01:49:29.242Z,21.23
2023-03-07T01:52:12.010Z,21.13
2023-03-07T01:54:42.904Z,21.37
2023-03-07T01:57:09.970Z,21.27
2023-03-07T01:59:42.520Z,21.00
2023-03-07T02:02:17.352Z,21.33
2023-03-07T02:05:02.325Z,21.97
2023-03-07T02:07:34.624Z,21.90
2023-03-07T02:10:02.050Z,20.83
2023-03-07T02:12:29.001Z,20.53
2023-03-07T02:14:56.016Z,19.90
2023-03-07T02:17:22.901Z,20.33
2023-03-07T02:19:58.569Z,20.80
2023-03-07T02:22:26.000Z,20.80
2023-03-07T02:25:14.649Z,21.53
2023-03-07T02:27:42.324Z,20.40
2023-03-07T02:30:10.409Z,22.13
2023-03-07T02:32:37.296Z,21.97
2023-03-07T02:35:15.896Z,20.73
2023-03-07T02:37:45.883Z,21.63
2023-03-07T02:40:16.567Z,21.77
2023-03-07T02:42:44.362Z,21.73
2023-03-07T02:45:16.210Z,20.93
2023-03-07T02:47:43.834Z,22.00
2023-03-07T02:50:13.139Z,21.83
2023-03-07T02:52:39.952Z,23.10
2023-03-07T02:55:09.513Z,22.70
2023-03-07T02:57:36.392Z,23.30
2023-03-07T03:00:09.391Z,23.50
2023-03-07T03:02:36.260Z,22.70
2023-03-07T03:05:03.922Z,22.73
2023-03-07T03:07:30.841Z,23.90
2023-03-07T03:09:58.040Z,24.20
2023-03-07T03:12:24.986Z,23.93
2023-03-07T03:14:51.785Z,24.57
2023-03-07T03:17:18.739Z,23.30
2023-03-07T03:19:45.600Z,24.90
2023-03-07T03:22:12.417Z,24.63
2023-03-07T03:24:40.642Z,25.37
2023-03-07T03:27:07.991Z,26.57
2023-03-07T03:29:34.940Z,26.70
2023-03-07T03:32:02.369Z,26.67
2023-03-07T03:34:29.886Z,27.50
2023-03-07T03:36:59.495Z,26.63
2023-03-07T03:39:26.297Z,27.47
2023-03-07T03:41:53.116Z,28.73
2023-03-07T03:44:19.929Z,27.83
2023-03-07T03:46:48.348Z,28.83
2023-03-07T03:49:16.877Z,27.93
2023-03-07T03:51:43.843Z,27.90
2023-03-07T03:54:13.778Z,27.77
2023-03-07T03:56:40.800Z,27.57
2023-03-07T03:59:07.865Z,27.37
2023-03-07T04:01:34.846Z,29.27
2023-03-07T04:04:02.146Z,27.73
2023-03-07T04:06:31.348Z,26.03
2023-03-07T04:08:58.259Z,25.73
2023-03-07T04:11:25.422Z,26.37
2023-03-07T04:13:53.252Z,26.53
2023-03-07T04:16:22.459Z,26.93
2023-03-07T04:18:52.904Z,26.70
2023-03-07T04:21:20.629Z,25.80
2023-03-07T04:23:49.680Z,24.70
2023-03-07T04:26:16.678Z,24.37
2023-03-07T04:28:44.871Z,24.87
2023-03-07T04:31:17.417Z,25.07
2023-03-07T04:33:44.774Z,24.77
2023-03-07T04:36:12.793Z,23.50
2023-03-07T04:38:40.614Z,24.40
2023-03-07T04:41:07.750Z,24.97
2023-03-07T04:43:34.818Z,24.43
2023-03-07T04:46:01.972Z,24.57
2023-03-07T04:48:28.913Z,24.33
2023-03-07T04:50:55.922Z,24.07
2023-03-07T04:53:22.802Z,22.40
2023-03-07T04:55:49.683Z,22.60
2023-03-07T04:58:18.031Z,24.80
2023-03-07T05:00:46.014Z,25.50
2023-03-07T05:03:14.581Z,22.90
2023-03-07T05:05:41.529Z,25.30
2023-03-07T05:08:08.959Z,23.30
2023-03-07T05:10:36.408Z,22.10
2023-03-07T05:13:03.854Z,22.27
2023-03-07T05:15:30.857Z,22.87
2023-03-07T05:17:58.630Z,22.47
2023-03-07T05:20:25.521Z,22.80
2023-03-07T05:22:52.601Z,22.33
2023-03-07T05:25:19.554Z,22.30
2023-03-07T05:27:47.103Z,22.03
2023-03-07T05:30:14.123Z,22.83
2023-03-07T05:32:41.422Z,23.57
2023-03-07T05:35:11.177Z,23.70
2023-03-07T05:37:38.155Z,23.23
2023-03-07T05:40:11.339Z,24.37
2023-03-07T05:42:38.147Z,24.63
2023-03-07T05:45:06.066Z,23.83
2023-03-07T05:47:32.996Z,25.00
2023-03-07T05:49:59.923Z,24.00
2023-03-07T05:52:27.866Z,26.60
2023-03-07T05:54:55.021Z,24.17
2023-03-07T05:57:23.025Z,24.50
2023-03-07T05:59:49.857Z,24.03
2023-03-07T06:02:17.000Z,23.63
2023-03-07T06:04:43.868Z,23.00
2023-03-07T06:07:12.005Z,24.10
2023-03-07T06:09:38.859Z,22.40
2023-03-07T06:12:10.684Z,24.33
2023-03-07T06:14:37.606Z,23.80
2023-03-07T06:17:05.110Z,24.77
2023-03-07T06:19:32.027Z,25.40
2023-03-07T06:21:58.846Z,29.00
2023-03-07T06:24:31.474Z,30.13
2023-03-07T06:26:59.833Z,31.30
2023-03-07T06:29:26.765Z,31.23
2023-03-07T06:31:53.565Z,29.23
2023-03-07T06:34:20.485Z,28.80
2023-03-07T06:36:48.730Z,26.37
2023-03-07T06:39:20.994Z,26.63
2023-03-07T06:41:51.307Z,24.93
2023-03-07T06:44:18.534Z,24.63
2023-03-07T06:46:46.040Z,24.63
2023-03-07T06:49:13.253Z,24.70
2023-03-07T06:51:40.271Z,23.87
2023-03-07T06:54:07.433Z,23.53
2023-03-07T06:56:35.314Z,22.70
2023-03-07T06:59:02.270Z,21.90
2023-03-07T07:01:36.322Z,23.17
2023-03-07T07:04:04.034Z,23.03
2023-03-07T07:06:31.240Z,23.30
2023-03-07T07:08:58.973Z,22.97
2023-03-07T07:11:26.535Z,23.07
2023-03-07T07:13:53.391Z,23.60
2023-03-07T07:16:23.580Z,23.17
2023-03-07T07:18:52.132Z,23.17
2023-03-07T07:21:19.366Z,21.77
2023-03-07T07:23:48.613Z,22.73
2023-03-07T07:26:15.789Z,21.60
2023-03-07T07:28:42.610Z,22.40
2023-03-07T07:31:09.479Z,21.67
2023-03-07T07:33:36.402Z,21.27
2023-03-07T07:36:03.972Z,22.47
2023-03-07T07:38:30.825Z,19.93
2023-03-07T07:40:57.851Z,18.57
2023-03-07T07:43:24.721Z,17.53
2023-03-07T07:45:51.580Z,17.20
2023-03-07T07:48:18.439Z,17.03
2023-03-07T07:50:46.083Z,16.03
2023-03-07T07:53:13.826Z,17.13
2023-03-07T07:55:40.662Z,16.47
2023-03-07T07:58:07.548Z,15.70
2023-03-07T08:00:34.579Z,16.33
2023-03-07T08:03:03.937Z,15.83
2023-03-07T08:05:31.900Z,16.47
2023-03-07T08:07:59.720Z,15.37
2023-03-07T08:10:26.784Z,15.77
2023-03-07T08:12:53.702Z,16.00
2023-03-07T08:15:23.867Z,15.63
2023-03-07T08:17:52.459Z,14.97
2023-03-07T08:20:22.308Z,15.40
2023-03-07T08:22:50.619Z,15.33
2023-03-07T08:25:21.582Z,14.73
2023-03-07T08:27:53.014Z,14.23
2023-03-07T08:30:25.060Z,15.27
2023-03-07T08:32:54.258Z,14.30
2023-03-07T08:35:21.358Z,14.40
2023-03-07T08:37:52.687Z,14.50
2023-03-07T08:40:20.518Z,14.23
2023-03-07T08:42:47.602Z,15.17
2023-03-07T08:45:15.305Z,14.77
2023-03-07T08:47:42.429Z,15.17
2023-03-07T08:50:09.855Z,14.80
2023-03-07T08:52:36.733Z,15.27
2023-03-07T08:55:03.933Z,15.37
2023-03-07T08:57:31.391Z,14.97
2023-03-07T08:59:58.234Z,14.97
2023-03-07T09:02:25.163Z,16.00
2023-03-07T09:04:59.052Z,15.63
2023-03-07T09:07:27.577Z,15.33
2023-03-07T09:09:54.350Z,16.17
2023-03-07T09:12:25.381Z,16.27
2023-03-07T09:14:55.987Z,16.63
2023-03-07T09:17:23.057Z,16.07
2023-03-07T09:19:50.685Z,16.53
2023-03-07T09:22:17.670Z,15.87
2023-03-07T09:24:44.511Z,17.17
2023-03-07T09:27:11.609Z,16.43
2023-03-07T09:29:38.457Z,17.87
2023-03-07T09:32:05.608Z,16.53
2023-03-07T09:34:32.454Z,15.80
2023-03-07T09:36:59.853Z,17.20
2023-03-07T09:39:26.701Z,16.27
2023-03-07T09:42:14.605Z,16.10
2023-03-07T09:44:41.357Z,15.67
2023-03-07T09:47:34.418Z,16.77
2023-03-07T09:50:03.993Z,16.37
2023-03-07T09:52:35.042Z,16.53
2023-03-07T09:55:12.080Z,16.37
2023-03-07T09:57:48.239Z,15.80
2023-03-07T10:00:33.008Z,16.37
2023-03-07T10:03:19.641Z,16.47
2023-03-07T10:05:51.645Z,16.93
2023-03-07T10:08:33.124Z,17.83
2023-03-07T10:11:01.022Z,16.70
2023-03-07T10:14:03.164Z,18.07
2023-03-07T10:17:07.686Z,18.60
2023-03-07T10:20:01.168Z,18.37
2023-03-07T10:22:31.138Z,18.20
2023-03-07T10:25:27.404Z,19.20
2023-03-07T10:28:08.784Z,18.97
2023-03-07T10:30:35.901Z,19.00
2023-03-07T10:33:06.661Z,18.30
2023-03-07T10:35:41.265Z,18.30
2023-03-07T10:38:26.812Z,19.93
2023-03-07T10:41:06.608Z,19.60
2023-03-07T10:43:34.925Z,19.97
2023-03-07T10:46:26.495Z,21.50
2023-03-07T10:49:10.181Z,20.20
2023-03-07T10:52:12.751Z,19.30
2023-03-07T10:54:39.948Z,18.80
2023-03-07T10:57:16.565Z,19.33
2023-03-07T10:59:48.553Z,18.53
2023-03-07T11:02:37.211Z,19.87
2023-03-07T11:05:24.208Z,19.87
2023-03-07T11:07:51.080Z,19.67
2023-03-07T11:10:40.132Z,20.20
2023-03-07T11:13:34.079Z,20.50
2023-03-07T11:16:18.756Z,19.50
2023-03-07T11:18:46.129Z,20.17
2023-03-07T11:21:52.218Z,20.03
2023-03-07T11:24:28.590Z,20.10
2023-03-07T11:26:57.442Z,19.43
2023-03-07T11:29:26.002Z,19.47
2023-03-07T11:31:58.669Z,19.93
2023-03-07T11:34:52.307Z,20.00
2023-03-07T11:37:34.607Z,19.87
2023-03-07T11:40:33.296Z,19.37
2023-03-07T11:43:12.082Z,19.33
2023-03-07T11:45:48.259Z,18.73
2023-03-07T11:48:57.151Z,19.00
2023-03-07T11:51:42.900Z,17.60
2023-03-07T11:54:24.771Z,17.33
2023-03-07T11:56:54.908Z,18.00
2023-03-07T12:00:17.990Z,18.30
2023-03-07T12:03:06.322Z,17.73
2023-03-07T12:05:33.397Z,17.43
2023-03-07T12:08:33.680Z,17.10
2023-03-07T12:11:23.257Z,15.80
2023-03-07T12:14:08.123Z,15.10
2023-03-07T12:16:44.794Z,15.33
2023-03-07T12:19:24.789Z,15.93
2023-03-07T12:22:09.213Z,15.27
2023-03-07T12:25:12.885Z,15.37
2023-03-07T12:27:44.678Z,15.73
2023-03-07T12:30:25.355Z,15.47
2023-03-07T12:32:55.568Z,15.30
2023-03-07T12:35:31.303Z,15.13
2023-03-07T12:37:58.136Z,15.13
2023-03-07T12:41:07.992Z,15.67
2023-03-07T12:43:41.193Z,15.17
2023-03-07T12:46:19.383Z,14.53
2023-03-07T12:49:04.899Z,15.13
2023-03-07T12:51:47.618Z,15.03
2023-03-07T12:54:21.479Z,15.37
2023-03-07T12:57:14.930Z,15.17
2023-03-07T12:59:44.172Z,15.03
2023-03-07T13:02:22.537Z,14.63
2023-03-07T13:04:50.014Z,14.60
2023-03-07T13:07:33.515Z,13.70
2023-03-07T13:10:07.380Z,13.83
2023-03-07T13:12:36.858Z,13.60
2023-03-07T13:15:21.024Z,13.83
2023-03-07T13:17:47.946Z,13.43
2023-03-07T13:20:38.342Z,13.20
2023-03-07T13:23:21.356Z,13.73
2023-03-07T13:26:13.280Z,13.70
2023-03-07T13:28:46.544Z,13.10
2023-03-07T13:31:29.298Z,13.63
2023-03-07T13:34:16.846Z,13.47
2023-03-07T13:36:43.787Z,12.87
2023-03-07T13:39:36.753Z,12.73
2023-03-07T13:42:25.714Z,12.37
2023-03-07T13:44:52.695Z,13.07
2023-03-07T13:50:35.913Z,12.60
2023-03-07T13:53:14.516Z,12.70
2023-03-07T13:55:46.934Z,12.30
2023-03-07T13:58:33.188Z,12.03
2023-03-07T14:01:04.418Z,12.67
2023-03-07T14:03:37.882Z,12.43
2023-03-07T14:06:23.215Z,12.23
2023-03-07T14:08:58.244Z,11.90
2023-03-07T14:12:09.604Z,11.87
2023-03-07T14:14:59.752Z,11.07
2023-03-07T14:17:37.983Z,10.77
2023-03-07T14:20:35.696Z,11.67
2023-03-07T14:23:21.035Z,11.23
2023-03-07T14:25:52.478Z,11.03
2023-03-07T14:28:27.826Z,10.80
2023-03-07T14:31:03.505Z,10.50
2023-03-07T14:33:38.498Z,10.57
2023-03-07T14:36:21.080Z,10.60
2023-03-07T14:38:50.310Z,10.60
2023-03-07T14:41:26.368Z,10.47
2023-03-07T14:44:18.775Z,10.03
2023-03-07T14:47:13.406Z,11.13
2023-03-07T14:49:49.158Z,10.70
2023-03-07T14:52:30.081Z,9.80
2023-03-07T14:55:01.963Z,9.87
2023-03-07T14:57:33.723Z,10.00
2023-03-07T15:00:25.368Z,9.73
2023-03-07T15:03:08.295Z,10.13
2023-03-07T15:05:46.047Z,10.73
2023-03-07T15:08:23.236Z,10.60
2023-03-07T15:11:18.277Z,10.37
2023-03-07T15:13:52.698Z,9.80
2023-03-07T15:16:27.320Z,10.20
2023-03-07T15:19:19.312Z,10.33
2023-03-07T15:21:56.054Z,10.00
2023-03-07T15:24:32.205Z,10.13
2023-03-07T15:27:00.783Z,10.37
2023-03-07T15:29:32.840Z,10.40
2023-03-07T15:32:07.245Z,10.00
2023-03-07T15:34:37.605Z,10.60
2023-03-07T15:37:19.597Z,8.90
2023-03-07T15:39:55.965Z,9.70
2023-03-07T15:42:27.490Z,9.73
2023-03-07T15:45:01.543Z,9.77
2023-03-07T15:47:30.949Z,9.83
2023-03-07T15:50:01.184Z,10.13
2023-03-07T15:52:36.338Z,10.10
2023-03-07T15:55:08.247Z,9.50
2023-03-07T15:57:47.757Z,9.70
2023-03-07T16:00:28.133Z,9.97
2023-03-07T16:03:32.164Z,9.90
2023-03-07T16:06:00.888Z,10.30
2023-03-07T16:08:27.784Z,10.80
2023-03-07T16:11:07.973Z,10.80
2023-03-07T16:13:43.782Z,9.53
2023-03-07T16:16:19.838Z,10.13
2023-03-07T16:18:46.920Z,10.23
2023-03-07T16:21:16.434Z,9.87
2023-03-07T16:23:44.272Z,10.63
2023-03-07T16:26:16.525Z,10.37
2023-03-07T16:28:44.463Z,9.80
2023-03-07T16:31:16.514Z,10.13
2023-03-07T16:33:45.201Z,10.30
2023-03-07T16:36:12.945Z,10.80
2023-03-07T16:38:40.228Z,10.57
2023-03-07T16:41:18.728Z,10.50
2023-03-07T16:43:47.318Z,10.60
2023-03-07T16:46:22.622Z,10.73
2023-03-07T16:48:49.885Z,11.20
2023-03-07T16:51:19.260Z,10.60
2023-03-07T16:53:47.516Z,10.87
2023-03-07T16:56:25.359Z,11.27
2023-03-07T16:58:54.149Z,11.40
2023-03-07T17:01:23.566Z,11.20
2023-03-07T17:03:50.533Z,11.73
2023-03-07T17:06:19.093Z,10.33
2023-03-07T17:08:46.031Z,11.13
2023-03-07T17:11:18.942Z,11.57
2023-03-07T17:13:47.692Z,11.17
2023-03-07T17:16:18.460Z,11.37
2023-03-07T17:18:53.381Z,11.10
2023-03-07T17:21:22.138Z,11.67
2023-03-07T17:23:49.694Z,11.30
2023-03-07T17:26:51.098Z,11.50
2023-03-07T17:29:28.751Z,10.73
2023-03-07T17:32:12.236Z,11.07
2023-03-07T17:34:58.674Z,10.53
2023-03-07T17:37:34.753Z,11.53
2023-03-07T17:40:02.180Z,11.70
2023-03-07T17:42:34.270Z,11.33
2023-03-07T17:47:51.533Z,11.13
2023-03-07T17:50:24.951Z,11.63
2023-03-07T17:59:47.740Z,10.60
2023-03-07T18:02:17.677Z,11.43
2023-03-07T18:07:32.408Z,11.50
2023-03-07T18:10:08.000Z,11.50
2023-03-07T18:12:42.393Z,11.93
2023-03-07T18:15:15.158Z,11.10
2023-03-07T18:17:48.164Z,11.57
2023-03-07T18:20:18.128Z,11.10
2023-03-07T18:22:45.372Z,11.00
2023-03-07T18:25:18.231Z,12.23
2023-03-07T18:27:48.002Z,11.67
2023-03-07T18:30:15.346Z,11.67
2023-03-07T18:32:46.226Z,11.17
2023-03-07T18:35:15.590Z,11.63
2023-03-07T18:37:45.086Z,11.17
2023-03-07T18:40:16.996Z,11.53
2023-03-07T18:42:44.116Z,10.97
2023-03-07T18:45:12.675Z,10.90
2023-03-07T18:47:39.516Z,11.00
2023-03-07T18:50:08.143Z,10.93
2023-03-07T18:52:34.954Z,11.17
2023-03-07T18:55:02.912Z,11.57
2023-03-07T18:57:30.511Z,11.20
2023-03-07T18:59:57.432Z,11.13
2023-03-07T19:02:24.681Z,10.70
2023-03-07T19:04:53.907Z,10.73
2023-03-07T19:07:20.904Z,10.50
2023-03-07T19:09:53.299Z,10.17
2023-03-07T19:12:20.664Z,10.17
2023-03-07T19:14:47.503Z,10.57
2023-03-07T19:17:14.349Z,10.33
2023-03-07T19:19:41.328Z,9.93
2023-03-07T19:22:11.148Z,9.87
2023-03-07T19:24:38.186Z,9.63
2023-03-07T19:27:12.658Z,10.00
2023-03-07T19:29:39.465Z,9.37
2023-03-07T19:32:06.426Z,10.10
2023-03-07T19:34:33.511Z,10.10
2023-03-07T19:37:00.529Z,9.73
2023-03-07T19:39:27.582Z,9.07
2023-03-07T19:41:54.733Z,9.67
2023-03-07T19:44:24.159Z,9.60
2023-03-07T19:46:51.024Z,8.40
2023-03-07T19:49:18.516Z,8.87
2023-03-07T19:51:45.417Z,9.97
2023-03-07T19:54:15.548Z,9.10
2023-03-07T19:56:44.526Z,9.67
2023-03-07T19:59:12.813Z,9.53
2023-03-07T20:01:39.705Z,9.87
2023-03-07T20:04:07.925Z,9.60
2023-03-07T20:06:42.396Z,8.97
2023-03-07T20:09:12.957Z,9.83
2023-03-07T20:11:43.342Z,8.93
2023-03-07T20:14:11.309Z,9.23
2023-03-07T20:16:38.361Z,9.50
2023-03-07T20:19:08.764Z,8.97
2023-03-07T20:21:36.553Z,8.97
2023-03-07T20:24:04.728Z,8.80
2023-03-07T20:26:40.910Z,8.17
2023-03-07T20:29:09.675Z,9.00
2023-03-07T20:31:39.226Z,9.40
2023-03-07T20:34:07.140Z,9.50
2023-03-07T20:36:36.493Z,9.30
2023-03-07T20:39:08.934Z,8.93
2023-03-07T20:41:36.087Z,9.67
2023-03-07T20:44:05.990Z,9.47
2023-03-07T20:46:33.863Z,9.60
2023-03-07T20:49:01.939Z,9.27
2023-03-07T20:51:31.952Z,9.13
2023-03-07T20:54:02.915Z,9.27
2023-03-07T20:56:32.170Z,9.50
2023-03-07T20:59:02.505Z,9.53
2023-03-07T21:01:31.838Z,9.27
2023-03-07T21:04:08.292Z,9.57
2023-03-07T21:06:37.394Z,10.30
2023-03-07T21:09:10.281Z,10.73
2023-03-07T21:11:40.115Z,10.27
2023-03-07T21:14:07.544Z,10.53
2023-03-07T21:16:34.673Z,10.57
2023-03-07T21:19:03.349Z,11.03
2023-03-07T21:21:31.140Z,10.53
2023-03-07T21:23:58.362Z,10.60
2023-03-07T21:26:27.877Z,10.70
2023-03-07T21:43:55.088Z,9.00
2023-03-07T21:46:26.254Z,8.57
2023-03-07T21:48:53.620Z,9.13
2023-03-07T21:51:21.167Z,9.17
2023-03-07T21:53:48.126Z,9.13
2023-03-07T21:56:17.262Z,9.53
2023-03-07T21:58:51.654Z,8.90
2023-03-07T22:01:21.279Z,8.87
2023-03-07T22:03:48.248Z,9.17
2023-03-07T22:06:17.055Z,8.63
2023-03-07T22:08:44.024Z,8.47
2023-03-07T22:11:12.608Z,8.43
2023-03-07T22:13:41.397Z,8.20
2023-03-07T22:16:14.590Z,8.37
2023-03-07T22:18:41.429Z,8.43
2023-03-07T22:21:10.302Z,8.73
2023-03-07T22:23:37.391Z,8.27
2023-03-07T22:26:06.902Z,8.37
2023-03-07T22:28:34.664Z,8.03
2023-03-07T22:31:04.782Z,8.47
2023-03-07T22:33:32.276Z,8.00
2023-03-07T22:36:01.144Z,6.40
2023-03-07T22:38:29.187Z,5.80
2023-03-07T22:41:07.799Z,5.87
2023-03-07T22:43:35.960Z,5.97
2023-03-07T22:46:07.404Z,5.90
2023-03-07T22:48:35.252Z,5.03
2023-03-07T22:51:02.240Z,4.80
2023-03-07T22:53:33.903Z,4.60
2023-03-07T22:56:01.130Z,5.00
2023-03-07T22:58:29.475Z,5.27
2023-03-07T23:00:56.395Z,4.50
2023-03-07T23:03:23.511Z,4.70
2023-03-07T23:05:50.474Z,4.47
2023-03-07T23:08:17.374Z,4.23
2023-03-07T23:10:44.216Z,2.53
2023-03-07T23:13:10.977Z,2.33
2023-03-07T23:15:41.401Z,2.30
2023-03-07T23:18:08.869Z,2.07
2023-03-07T23:20:39.019Z,1.93
2023-03-07T23:23:06.117Z,2.27
2023-03-07T23:25:33.848Z,2.00
2023-03-07T23:28:00.819Z,2.90
2023-03-07T23:30:27.736Z,2.53
2023-03-07T23:32:54.931Z,2.20
2023-03-07T23:35:21.723Z,2.20
2023-03-07T23:37:49.615Z,2.10
2023-03-07T23:40:19.345Z,1.90
2023-03-07T23:42:46.103Z,1.90
2023-03-07T23:45:12.984Z,2.00
2023-03-07T23:47:39.769Z,1.80
2023-03-07T23:50:07.796Z,1.97
2023-03-07T23:52:34.691Z,1.90
2023-03-07T23:55:01.631Z,2.00
2023-03-07T23:57:28.426Z,1.67
2023-03-07T23:59:55.187Z,1.90
